Time;durP1;ratioP1;P1;durP2;ratioP2;P2;SDS_P1;SDS_P2;PMS_P1;PMS_P2;Temp;Humidity;BMP_temperature;BMP_pressure;BME280_temperature;BME280_humidity;BME280_pressure;Samples;Min_cycle;Max_cycle;Signal;HPM_P1;HPM_P2
2022/08/12 00:43:43;;;;;;;4.00;3.00;;;24.10;42.40;;;;;;4974110;28;20659;-74
2022/08/12 00:48:53;;;;;;;3.70;2.40;;;24.10;42.60;;;;;;4974235;28;20584;-74
2022/08/12 00:51:20;;;;;;;3.37;3.07;;;24.00;42.50;;;;;;4974275;28;20606;-74
2022/08/12 00:53:45;;;;;;;3.47;2.60;;;24.00;42.70;;;;;;4974287;28;21119;-73
2022/08/12 00:56:12;;;;;;;4.93;2.80;;;24.00;42.80;;;;;;4976123;28;20642;-74
2022/08/12 00:58:45;;;;;;;3.30;2.27;;;23.90;42.80;;;;;;4974353;28;20258;-74
2022/08/12 01:01:14;;;;;;;3.70;3.17;;;23.90;43.10;;;;;;4974062;28;20618;-74
2022/08/12 01:12:00;;;;;;;3.10;2.80;;;23.70;43.30;;;;;;4988644;28;20627;-74
2022/08/12 01:14:27;;;;;;;3.30;2.70;;;23.70;43.30;;;;;;4973816;28;20625;-74
2022/08/12 01:16:54;;;;;;;2.70;1.93;;;23.70;43.40;;;;;;4988273;28;20579;-75
2022/08/12 01:19:22;;;;;;;3.80;2.80;;;23.60;43.50;;;;;;4973498;28;20670;-74
2022/08/12 01:22:01;;;;;;;2.67;2.43;;;23.60;43.80;;;;;;4973637;28;20989;-75
2022/08/12 01:24:48;;;;;;;2.97;2.63;;;23.50;43.80;;;;;;4973612;28;20601;-74
2022/08/12 01:27:16;;;;;;;3.30;3.00;;;23.50;44.20;;;;;;4973506;28;20563;-74
2022/08/12 01:29:45;;;;;;;4.60;3.00;;;23.50;43.90;;;;;;4973405;28;20559;-75
2022/08/12 01:32:14;;;;;;;3.43;2.80;;;23.50;44.20;;;;;;4972963;28;20570;-75
2022/08/12 01:34:50;;;;;;;3.50;2.70;;;23.50;44.30;;;;;;4976690;28;20951;-75
2022/08/12 01:37:21;;;;;;;3.37;2.80;;;23.40;44.50;;;;;;4988637;28;20954;-75
2022/08/12 01:39:51;;;;;;;3.00;2.67;;;23.40;44.60;;;;;;4973404;28;20908;-75
2022/08/12 01:42:21;;;;;;;3.07;2.77;;;23.40;44.80;;;;;;4973349;28;20583;-75
2022/08/12 01:44:49;;;;;;;3.10;2.70;;;23.30;44.80;;;;;;4973143;28;20623;-75
2022/08/12 01:47:22;;;;;;;2.67;2.43;;;23.30;44.80;;;;;;4973094;28;20610;-75
2022/08/12 01:50:25;;;;;;;3.30;2.67;;;23.20;44.90;;;;;;4973280;28;20645;-75
2022/08/12 01:53:04;;;;;;;3.53;2.70;;;23.20;45.10;;;;;;4973129;28;20931;-75
2022/08/12 01:55:35;;;;;;;3.90;2.97;;;23.20;44.90;;;;;;4971651;28;20977;-75
2022/08/12 01:58:27;;;;;;;6.50;3.07;;;23.20;45.00;;;;;;4973169;28;20692;-76
2022/08/12 02:00:59;;;;;;;3.93;3.00;;;23.20;45.00;;;;;;4973011;28;20622;-75
2022/08/12 02:12:35;;;;;;;4.17;2.37;;;23.10;45.10;;;;;;4972972;28;20575;-75
2022/08/12 02:15:34;;;;;;;6.00;2.80;;;23.10;45.20;;;;;;4972429;28;20605;-75
2022/08/12 02:18:25;;;;;;;3.60;2.30;;;23.00;45.30;;;;;;4972764;28;20607;-75
2022/08/12 02:21:25;;;;;;;4.40;2.80;;;23.00;45.20;;;;;;4972523;28;20618;-76
2022/08/12 02:23:52;;;;;;;5.23;2.57;;;22.90;45.30;;;;;;4972745;28;20698;-76
2022/08/12 02:26:19;;;;;;;3.83;2.77;;;22.90;45.20;;;;;;4971217;28;20587;-75
2022/08/12 02:28:46;;;;;;;2.70;2.27;;;22.90;45.90;;;;;;4972730;28;20670;-75
2022/08/12 02:31:13;;;;;;;4.20;3.00;;;22.80;45.30;;;;;;4972862;28;21188;-74
2022/08/12 02:33:40;;;;;;;5.40;2.87;;;22.80;45.50;;;;;;4972629;28;21193;-74
2022/08/12 02:36:06;;;;;;;3.10;2.70;;;22.80;45.60;;;;;;4972364;28;20568;-74
2022/08/12 02:38:33;;;;;;;3.40;2.33;;;22.80;45.80;;;;;;4972646;28;20610;-74
2022/08/12 02:41:03;;;;;;;3.30;3.00;;;22.70;45.80;;;;;;4972489;28;20630;-74
2022/08/12 02:43:33;;;;;;;5.13;2.90;;;22.70;46.00;;;;;;4987567;28;20619;-75
2022/08/12 02:46:05;;;;;;;5.90;3.03;;;22.60;45.90;;;;;;4972972;28;20661;-73
2022/08/12 02:48:43;;;;;;;3.80;3.00;;;22.60;46.30;;;;;;4973209;28;20598;-74
2022/08/12 02:51:11;;;;;;;3.63;2.87;;;22.50;46.30;;;;;;4971547;28;20589;-74
2022/08/12 02:53:39;;;;;;;3.57;2.13;;;22.50;46.30;;;;;;4972456;28;20988;-75
2022/08/12 02:56:05;;;;;;;3.70;2.33;;;22.50;46.30;;;;;;4972090;28;20579;-75
2022/08/12 02:58:34;;;;;;;3.30;2.60;;;22.50;46.30;;;;;;4987432;28;20579;-74
2022/08/12 03:01:02;;;;;;;3.17;2.40;;;22.50;46.40;;;;;;4971200;28;20633;-74
2022/08/12 03:03:31;;;;;;;3.43;2.67;;;22.50;46.50;;;;;;4972440;28;20602;-75
2022/08/12 03:06:11;;;;;;;4.70;2.70;;;22.40;46.40;;;;;;4972224;28;21044;-74
2022/08/12 03:08:42;;;;;;;3.43;2.80;;;22.40;46.90;;;;;;4987505;28;20909;-75
2022/08/12 03:11:33;;;;;;;3.40;2.20;;;22.40;46.60;;;;;;4971283;28;20586;-74
2022/08/12 03:14:00;;;;;;;3.50;2.30;;;22.30;46.70;;;;;;4961705;28;20673;-74
2022/08/12 03:16:29;;;;;;;2.30;1.90;;;22.40;46.70;;;;;;4971942;28;20582;-74
2022/08/12 03:18:56;;;;;;;3.20;2.70;;;22.30;46.70;;;;;;4972329;28;20571;-74
2022/08/12 03:21:23;;;;;;;2.10;1.90;;;22.30;46.70;;;;;;4972160;28;20727;-73
2022/08/12 03:23:53;;;;;;;4.50;2.27;;;22.30;46.70;;;;;;4992451;28;20619;-73
2022/08/12 03:26:23;;;;;;;2.60;2.40;;;22.30;46.90;;;;;;4970652;28;20610;-74
2022/08/12 03:28:49;;;;;;;4.47;2.37;;;22.30;47.00;;;;;;4987084;28;20593;-74
2022/08/12 03:31:17;;;;;;;3.63;2.70;;;22.20;46.90;;;;;;4987010;28;20690;-75
2022/08/12 03:33:46;;;;;;;6.13;2.40;;;22.20;46.90;;;;;;4973862;28;20642;-75
2022/08/12 03:36:19;;;;;;;3.30;2.20;;;22.20;47.00;;;;;;4973996;28;20935;-75
2022/08/12 03:39:18;;;;;;;2.90;2.50;;;22.20;47.10;;;;;;4974466;28;20578;-75
2022/08/12 03:41:47;;;;;;;3.47;2.27;;;22.20;47.20;;;;;;4957962;28;21245;-75
2022/08/12 04:01:08;;;;;;;4.33;2.47;;;21.90;47.20;;;;;;4984719;28;20575;-75
2022/08/12 04:03:51;;;;;;;2.57;2.10;;;21.90;47.30;;;;;;4975268;28;20665;-75
2022/08/12 04:06:23;;;;;;;3.00;2.00;;;21.90;47.40;;;;;;4974956;28;20179;-75
2022/08/12 04:08:50;;;;;;;4.20;2.43;;;21.90;47.60;;;;;;4975353;28;20617;-75
2022/08/12 04:14:10;;;;;;;3.90;2.40;;;21.80;47.70;;;;;;4975239;28;20718;-76
2022/08/12 04:16:37;;;;;;;4.23;2.10;;;21.80;47.90;;;;;;4974775;28;20633;-75
2022/08/12 04:19:04;;;;;;;3.17;2.30;;;21.80;47.90;;;;;;4975028;28;20578;-75
2022/08/12 04:21:35;;;;;;;3.63;2.80;;;21.80;48.00;;;;;;4975031;28;20602;-76
2022/08/12 04:24:01;;;;;;;2.90;2.27;;;21.80;48.10;;;;;;4974735;28;20653;-75
2022/08/12 04:26:28;;;;;;;4.50;3.00;;;21.80;48.10;;;;;;4973166;28;20681;-75
2022/08/12 04:28:55;;;;;;;5.50;2.90;;;21.80;48.70;;;;;;4974884;28;20607;-75
2022/08/12 04:31:39;;;;;;;3.83;2.87;;;21.80;48.40;;;;;;4974648;28;20626;-75
2022/08/12 04:34:06;;;;;;;4.00;2.47;;;21.70;48.90;;;;;;4974820;28;20608;-76
2022/08/12 04:36:33;;;;;;;5.40;2.50;;;21.80;48.60;;;;;;4978238;28;20574;-76
2022/08/12 04:39:01;;;;;;;3.50;2.77;;;21.80;48.70;;;;;;4973422;28;20581;-76
2022/08/12 04:41:29;;;;;;;4.73;2.77;;;21.80;48.90;;;;;;4974265;28;20599;-76
2022/08/12 04:43:55;;;;;;;3.90;2.70;;;21.80;49.00;;;;;;4973510;28;20618;-76
2022/08/12 04:46:23;;;;;;;3.17;2.40;;;21.70;49.00;;;;;;4974018;28;20583;-77
2022/08/12 04:48:50;;;;;;;3.80;2.57;;;21.80;49.20;;;;;;4974438;28;20615;-76
2022/08/12 04:51:17;;;;;;;3.17;2.30;;;21.80;49.30;;;;;;4974105;28;20619;-75
2022/08/12 04:53:45;;;;;;;5.53;2.80;;;21.80;49.30;;;;;;4989166;28;20609;-75
2022/08/12 04:56:11;;;;;;;7.13;2.80;;;21.80;49.50;;;;;;4962605;28;20603;-75
2022/08/12 04:58:42;;;;;;;4.73;3.03;;;21.80;49.50;;;;;;4964942;28;20641;-73
2022/08/12 05:01:29;;;;;;;;;;;;;;;;;;;;;
2022/08/12 05:03:57;;;;;;;3.73;2.57;;;21.90;49.80;;;;;;4969834;28;20650;-73
2022/08/12 05:06:24;;;;;;;4.10;2.10;;;21.90;49.80;;;;;;4954135;29;20576;-73
2022/08/12 05:08:53;;;;;;;4.97;2.33;;;21.90;49.80;;;;;;4973099;28;20599;-73
2022/08/12 05:11:23;;;;;;;4.00;2.60;;;22.00;50.00;;;;;;4973804;28;20623;-73
2022/08/12 05:13:51;;;;;;;6.73;2.67;;;22.00;50.00;;;;;;4964563;28;20730;-75
2022/08/12 05:16:17;;;;;;;5.03;2.67;;;22.00;49.90;;;;;;4964155;28;21130;-75
2022/08/12 05:18:42;;;;;;;3.77;2.67;;;22.10;50.00;;;;;;4973650;28;20638;-75
2022/08/12 05:21:09;;;;;;;2.80;2.30;;;22.10;50.00;;;;;;4973939;28;20581;-75
2022/08/12 05:23:39;;;;;;;3.47;2.23;;;22.20;50.20;;;;;;4965253;28;20226;-75
2022/08/12 05:26:05;;;;;;;3.80;2.70;;;22.20;50.20;;;;;;4953705;28;20661;-76
2022/08/12 05:28:31;;;;;;;5.17;2.80;;;22.30;50.10;;;;;;4965559;28;20583;-76
2022/08/12 05:31:00;;;;;;;4.37;2.80;;;22.30;50.10;;;;;;4972246;28;20717;-76
2022/08/12 05:33:38;;;;;;;3.73;2.67;;;22.30;50.00;;;;;;4962740;28;20681;-76
2022/08/12 05:36:11;;;;;;;3.40;2.70;;;22.40;50.00;;;;;;4953671;28;20674;-75
2022/08/12 05:38:55;;;;;;;4.37;2.67;;;22.50;49.90;;;;;;4954207;28;20579;-76
2022/08/12 05:41:28;;;;;;;5.20;2.63;;;22.50;49.80;;;;;;4954059;28;20572;-76
2022/08/12 05:44:03;;;;;;;3.17;2.10;;;22.60;49.80;;;;;;4952621;29;20638;-75
2022/08/12 05:46:30;;;;;;;3.17;2.23;;;22.70;49.70;;;;;;4953738;28;20571;-75
2022/08/12 05:48:59;;;;;;;8.67;2.40;;;22.80;49.70;;;;;;4971413;28;20608;-76
2022/08/12 05:51:27;;;;;;;3.73;2.43;;;22.90;49.80;;;;;;4955389;29;20690;-75
2022/08/12 05:53:54;;;;;;;4.00;2.37;;;23.00;49.80;;;;;;4953148;28;21199;-75
2022/08/12 05:56:29;;;;;;;5.20;2.30;;;23.10;49.70;;;;;;4952802;28;21163;-76
2022/08/12 05:58:57;;;;;;;4.43;2.30;;;23.10;50.10;;;;;;4954437;29;20579;-75
2022/08/12 06:01:25;;;;;;;3.38;2.80;;;23.30;49.50;;;;;;4961269;28;21267;-76
2022/08/12 06:03:51;;;;;;;4.85;2.90;;;23.40;49.50;;;;;;4962993;28;20495;-76
2022/08/12 06:06:18;;;;;;;4.50;2.57;;;23.60;49.50;;;;;;4981758;28;20640;-76
2022/08/12 06:08:47;;;;;;;3.47;2.50;;;23.70;49.30;;;;;;4986912;28;20571;-76
2022/08/12 06:11:16;;;;;;;2.60;2.00;;;23.80;49.20;;;;;;4993941;28;20706;-76
2022/08/12 06:13:42;;;;;;;3.23;1.87;;;24.00;49.20;;;;;;4984325;28;20959;-76
2022/08/12 06:16:10;;;;;;;2.73;2.07;;;24.10;49.00;;;;;;4973178;28;20642;-77
2022/08/12 06:18:39;;;;;;;6.40;3.00;;;24.20;48.90;;;;;;4955369;28;20687;-77
2022/08/12 06:21:10;;;;;;;6.20;2.20;;;24.40;48.30;;;;;;4972390;28;20226;-76
2022/08/12 06:23:35;;;;;;;3.47;2.25;;;24.60;48.80;;;;;;4973306;28;20731;-77
2022/08/12 06:26:03;;;;;;;5.20;2.00;;;25.20;49.20;;;;;;4978042;28;20223;-75
2022/08/12 06:28:29;;;;;;;4.57;1.93;;;25.90;49.70;;;;;;4971903;28;20579;-75
2022/08/12 06:30:57;;;;;;;3.97;2.60;;;26.80;50.20;;;;;;4973537;28;20727;-75
2022/08/12 06:33:23;;;;;;;3.90;2.07;;;28.30;46.10;;;;;;4974067;28;20282;-75
2022/08/12 06:35:49;;;;;;;2.40;1.60;;;28.80;47.30;;;;;;4987635;28;20575;-75
2022/08/12 06:38:20;;;;;;;2.47;1.60;;;29.70;47.50;;;;;;4970847;28;20564;-74
2022/08/12 06:43:38;;;;;;;2.53;1.73;;;31.50;46.40;;;;;;4972119;28;20634;-74
2022/08/12 06:46:04;;;;;;;2.83;2.13;;;32.50;45.80;;;;;;4972432;28;20695;-74
2022/08/12 06:48:31;;;;;;;3.07;1.70;;;33.40;44.70;;;;;;4972738;28;21018;-75
2022/08/12 06:50:58;;;;;;;3.40;1.83;;;34.20;43.40;;;;;;4971122;28;21000;-75
2022/08/12 06:53:25;;;;;;;5.87;1.80;;;34.80;42.30;;;;;;4971237;28;20702;-75
2022/08/12 06:55:55;;;;;;;3.23;1.87;;;35.40;41.30;;;;;;4970279;28;20564;-75
2022/08/12 06:58:23;;;;;;;5.67;1.87;;;36.00;40.40;;;;;;4972430;28;20571;-75
2022/08/12 07:00:50;;;;;;;2.53;1.50;;;36.50;38.90;;;;;;4971179;28;20584;-74
2022/08/12 07:03:20;;;;;;;2.63;1.50;;;36.90;38.40;;;;;;4976148;28;20574;-75
2022/08/12 07:05:47;;;;;;;4.13;1.50;;;37.10;37.30;;;;;;4972176;28;20590;-75
2022/08/12 07:08:15;;;;;;;2.30;1.57;;;37.40;36.60;;;;;;4973588;28;20665;-75
2022/08/12 07:10:57;;;;;;;2.00;1.40;;;37.70;36.30;;;;;;4975957;28;20631;-75
2022/08/12 07:13:51;;;;;;;4.73;1.10;;;37.90;35.60;;;;;;4976089;28;20662;-75
2022/08/12 07:16:20;;;;;;;2.00;1.33;;;38.40;35.10;;;;;;4958250;28;20630;-76
2022/08/12 07:18:49;;;;;;;3.07;1.77;;;38.70;35.00;;;;;;4975988;28;20730;-75
2022/08/12 07:21:16;;;;;;;1.97;1.40;;;39.20;34.80;;;;;;4975741;28;20594;-75
2022/08/12 07:23:42;;;;;;;3.23;1.53;;;39.50;33.50;;;;;;4975347;28;21033;-76
2022/08/12 07:26:11;;;;;;;2.50;1.40;;;39.50;32.80;;;;;;4975302;28;20579;-77
2022/08/12 07:28:40;;;;;;;7.00;2.00;;;39.50;32.00;;;;;;4974475;28;20950;-76
2022/08/12 07:31:08;;;;;;;1.87;1.20;;;39.40;31.50;;;;;;4974719;28;20629;-74
2022/08/12 07:33:39;;;;;;;2.13;1.10;;;39.30;31.10;;;;;;4971890;28;21086;-75
2022/08/12 07:36:07;;;;;;;2.37;1.60;;;39.50;31.20;;;;;;4969731;28;20591;-75
2022/08/12 07:38:43;;;;;;;7.97;1.67;;;39.50;30.90;;;;;;4974507;28;20563;-76
2022/08/12 07:41:15;;;;;;;2.27;1.40;;;39.50;30.50;;;;;;4978276;28;20610;-75
2022/08/12 07:43:44;;;;;;;2.30;1.60;;;39.80;30.70;;;;;;4973195;28;20626;-75
2022/08/12 07:46:17;;;;;;;3.27;1.63;;;39.90;30.20;;;;;;4988200;23;21119;-78
2022/08/12 07:48:47;;;;;;;3.30;1.10;;;40.00;29.60;;;;;;4973866;28;20662;-75
2022/08/12 07:51:14;;;;;;;4.80;1.67;;;39.90;29.80;;;;;;4967568;28;20642;-75
2022/08/12 07:53:40;;;;;;;4.90;1.07;;;39.90;29.40;;;;;;4956292;29;20574;-75
2022/08/12 07:56:08;;;;;;;4.33;1.37;;;40.00;29.50;;;;;;4971056;28;20622;-76
2022/08/12 07:58:38;;;;;;;2.40;1.30;;;40.30;29.70;;;;;;4955056;29;21130;-76
2022/08/12 08:01:16;;;;;;;3.63;1.30;;;40.50;29.30;;;;;;4970982;28;20682;-76
2022/08/12 08:06:30;;;;;;;2.10;1.10;;;40.90;29.20;;;;;;4955972;28;20600;-77
2022/08/12 08:08:58;;;;;;;2.20;1.00;;;41.20;29.20;;;;;;4956223;29;20564;-77
2022/08/12 08:14:09;;;;;;;2.83;1.17;;;41.60;28.70;;;;;;4971024;28;20667;-76
2022/08/12 08:16:40;;;;;;;2.97;1.20;;;41.90;28.60;;;;;;4955806;29;20606;-78
2022/08/12 08:19:19;;;;;;;2.83;1.00;;;42.20;28.30;;;;;;4955569;28;20576;-77
2022/08/12 08:21:45;;;;;;;4.37;1.10;;;42.30;27.90;;;;;;4955734;29;20629;-77
2022/08/12 08:24:14;;;;;;;1.90;1.17;;;42.50;27.90;;;;;;4938662;29;20901;-77
2022/08/12 08:26:41;;;;;;;3.63;1.20;;;42.60;27.60;;;;;;4954484;29;20607;-77
2022/08/12 08:29:11;;;;;;;3.80;0.93;;;42.60;26.60;;;;;;4955610;29;21022;-77
2022/08/12 08:31:42;;;;;;;1.40;0.90;;;42.30;26.00;;;;;;4954376;29;20991;-77
2022/08/12 08:34:12;;;;;;;1.53;0.90;;;42.20;26.30;;;;;;4955632;28;20603;-77
2022/08/12 08:36:39;;;;;;;5.00;0.90;;;42.00;25.50;;;;;;4972793;28;20669;-77
2022/08/12 08:39:06;;;;;;;1.87;0.90;;;41.80;25.80;;;;;;4977295;28;20571;-77
2022/08/12 08:44:16;;;;;;;1.50;1.00;;;41.40;26.40;;;;;;4974655;28;20937;-77
2022/08/12 08:46:43;;;;;;;2.63;1.03;;;41.70;26.40;;;;;;4974491;28;20601;-77
2022/08/12 08:49:10;;;;;;;1.70;0.80;;;42.00;26.20;;;;;;4974932;28;20616;-76
2022/08/12 08:51:38;;;;;;;1.70;1.00;;;42.20;26.50;;;;;;4974545;28;20637;-77
2022/08/12 08:54:05;;;;;;;2.63;0.80;;;42.60;26.30;;;;;;4973411;28;20614;-77
2022/08/12 08:56:32;;;;;;;3.47;0.90;;;42.80;25.90;;;;;;4974526;28;20698;-77
2022/08/12 08:58:58;;;;;;;2.13;0.90;;;43.00;25.60;;;;;;4974690;28;20578;-76
2022/08/12 09:01:25;;;;;;;3.30;1.00;;;43.00;25.40;;;;;;4973000;28;20981;-75
2022/08/12 09:03:51;;;;;;;1.50;0.90;;;43.30;25.50;;;;;;4973049;28;20222;-76
2022/08/12 09:06:19;;;;;;;1.37;0.80;;;43.40;25.10;;;;;;4974211;28;20605;-77
2022/08/12 09:08:45;;;;;;;1.93;0.83;;;43.30;24.60;;;;;;4974271;28;20613;-76
2022/08/12 09:13:55;;;;;;;1.90;0.93;;;43.20;24.60;;;;;;4974640;28;20179;-77
2022/08/12 09:16:21;;;;;;;2.00;1.00;;;43.30;24.30;;;;;;4975965;28;20628;-77
2022/08/12 09:18:47;;;;;;;2.33;1.00;;;43.10;24.60;;;;;;4974048;28;20179;-77
2022/08/12 09:21:13;;;;;;;2.50;0.80;;;43.10;24.30;;;;;;4973998;28;20258;-77
2022/08/12 09:23:40;;;;;;;1.50;0.80;;;43.00;24.00;;;;;;4973697;28;20607;-76
2022/08/12 09:26:08;;;;;;;2.50;1.10;;;42.80;24.30;;;;;;4973554;28;20614;-77
2022/08/12 09:28:34;;;;;;;1.60;0.80;;;42.70;23.80;;;;;;4973853;28;20701;-77
2022/08/12 09:31:00;;;;;;;2.30;1.17;;;42.60;24.20;;;;;;4971776;28;20579;-77
2022/08/12 09:33:33;;;;;;;1.70;0.80;;;42.50;23.10;;;;;;4973680;28;20673;-75
2022/08/12 09:35:59;;;;;;;6.43;1.93;;;42.30;24.00;;;;;;4973472;28;20694;-78
2022/08/12 09:38:28;;;;;;;1.40;0.80;;;42.40;24.20;;;;;;4973588;28;20687;-77
2022/08/12 09:40:54;;;;;;;1.63;0.77;;;42.80;24.60;;;;;;4972475;28;20606;-77
2022/08/12 09:46:05;;;;;;;5.23;1.20;;;43.40;23.70;;;;;;4971842;28;20676;-77
2022/08/12 09:48:31;;;;;;;1.57;0.80;;;43.60;23.00;;;;;;4973576;28;20703;-77
2022/08/12 09:50:57;;;;;;;1.97;0.90;;;43.30;22.60;;;;;;4973816;28;20574;-77
2022/08/12 09:53:24;;;;;;;1.60;0.90;;;43.30;22.60;;;;;;4977912;28;20575;-77
2022/08/12 09:55:56;;;;;;;1.90;0.83;;;43.10;22.60;;;;;;4972984;28;20294;-75
2022/08/12 09:58:27;;;;;;;15.23;2.37;;;42.90;22.60;;;;;;4971974;28;20641;-76
2022/08/12 10:01:03;;;;;;;4.87;0.80;;;42.80;22.60;;;;;;4972005;28;20722;-75
2022/08/12 10:03:35;;;;;;;1.70;0.80;;;42.70;22.40;;;;;;4973237;28;20575;-77
2022/08/12 10:06:05;;;;;;;2.40;0.90;;;42.60;22.60;;;;;;4972714;28;20677;-75
2022/08/12 10:08:34;;;;;;;1.60;0.93;;;42.50;22.60;;;;;;4973002;28;20626;-75
2022/08/12 10:13:48;;;;;;;3.20;0.90;;;42.10;22.20;;;;;;4971632;28;20593;-76
2022/08/12 10:16:24;;;;;;;2.03;1.00;;;41.70;22.10;;;;;;4969814;28;20937;-76
2022/08/12 10:18:55;;;;;;;1.83;1.00;;;41.60;23.00;;;;;;4971869;28;20981;-76
2022/08/12 10:21:30;;;;;;;2.40;0.80;;;41.70;22.80;;;;;;4970617;28;20627;-76
2022/08/12 10:24:02;;;;;;;2.27;1.10;;;42.00;23.20;;;;;;4971852;28;20938;-75
2022/08/12 10:31:57;;;;;;;4.33;1.00;;;42.10;21.90;;;;;;4970202;28;20968;-77
2022/08/12 10:34:25;;;;;;;2.50;0.90;;;42.00;22.00;;;;;;4962801;28;20583;-76
2022/08/12 10:36:57;;;;;;;2.50;1.03;;;42.00;22.20;;;;;;4951599;28;20187;-75
2022/08/12 10:39:25;;;;;;;1.50;0.80;;;41.80;21.90;;;;;;4953681;28;20572;-75
2022/08/12 10:44:36;;;;;;;1.40;0.80;;;41.40;22.20;;;;;;4957205;29;20604;-75
2022/08/12 10:47:03;;;;;;;1.80;1.00;;;41.50;22.50;;;;;;4957625;29;21126;-75
2022/08/12 10:49:33;;;;;;;1.70;0.90;;;41.60;22.10;;;;;;4957624;28;20572;-77
2022/08/12 10:52:03;;;;;;;2.20;0.90;;;41.70;22.70;;;;;;4957556;28;20576;-75
2022/08/12 10:54:30;;;;;;;1.50;0.80;;;41.90;22.10;;;;;;4957136;28;21111;-75
2022/08/12 10:56:59;;;;;;;1.53;1.03;;;42.00;22.20;;;;;;4957196;28;20571;-77
2022/08/12 10:59:31;;;;;;;3.90;1.63;;;41.80;21.90;;;;;;4957149;29;20563;-77
2022/08/12 11:01:58;;;;;;;2.27;1.20;;;41.50;21.80;;;;;;4957220;28;20630;-77
2022/08/12 11:04:27;;;;;;;1.98;1.10;;;41.40;21.90;;;;;;4956471;28;20700;-77
2022/08/12 11:06:55;;;;;;;1.43;0.80;;;40.80;21.80;;;;;;4960568;28;20200;-75
2022/08/12 11:09:32;;;;;;;1.80;1.03;;;40.80;22.10;;;;;;4957109;28;20911;-75
2022/08/12 11:12:05;;;;;;;1.40;0.90;;;41.00;22.00;;;;;;4957110;28;20591;-74
2022/08/12 11:14:36;;;;;;;4.90;0.70;;;41.00;22.80;;;;;;4956899;28;21111;-74
2022/08/12 11:17:08;;;;;;;1.70;0.80;;;41.20;22.10;;;;;;4956998;28;20572;-74
2022/08/12 11:19:36;;;;;;;4.60;1.10;;;41.40;22.00;;;;;;4956899;28;20607;-75
2022/08/12 11:22:03;;;;;;;1.50;0.80;;;41.60;22.10;;;;;;4956725;28;20619;-75
2022/08/12 11:24:29;;;;;;;1.60;0.90;;;41.60;21.60;;;;;;4955466;29;20560;-75
2022/08/12 11:26:56;;;;;;;1.50;0.90;;;41.40;21.30;;;;;;4955685;29;20568;-75
2022/08/12 11:29:24;;;;;;;2.67;0.70;;;40.90;21.20;;;;;;4955521;29;21210;-74
2022/08/12 11:31:50;;;;;;;2.63;0.90;;;40.60;21.40;;;;;;4956773;28;20643;-74
2022/08/12 11:34:17;;;;;;;1.50;0.80;;;40.60;21.60;;;;;;4955236;29;20568;-75
2022/08/12 11:36:53;;;;;;;3.00;0.80;;;40.60;21.70;;;;;;4971343;28;20584;-74
2022/08/12 11:39:20;;;;;;;2.37;1.00;;;40.40;21.50;;;;;;4956502;29;20583;-75
2022/08/12 11:41:46;;;;;;;2.10;0.83;;;40.10;21.60;;;;;;4955719;29;20623;-74
2022/08/12 11:44:12;;;;;;;1.60;0.80;;;39.90;21.80;;;;;;4974308;28;20572;-74
2022/08/12 11:46:39;;;;;;;2.17;0.70;;;40.10;22.60;;;;;;4971027;28;20623;-74
2022/08/12 11:49:06;;;;;;;1.70;0.87;;;40.20;22.50;;;;;;4956385;28;21308;-74
2022/08/12 11:51:33;;;;;;;4.70;1.10;;;40.50;22.20;;;;;;4956498;28;21127;-74
2022/08/12 11:53:59;;;;;;;2.03;1.07;;;40.70;22.20;;;;;;4954318;28;20579;-75
2022/08/12 11:56:26;;;;;;;1.40;0.80;;;40.80;22.30;;;;;;4956168;29;20594;-74
2022/08/12 11:58:51;;;;;;;1.60;0.77;;;41.00;22.30;;;;;;4954925;29;20601;-75
2022/08/12 12:01:17;;;;;;;1.60;0.90;;;41.10;22.40;;;;;;4955042;28;20740;-77
2022/08/12 12:03:43;;;;;;;3.20;1.00;;;41.10;21.60;;;;;;4956157;28;20172;-78
2022/08/12 12:06:09;;;;;;;1.67;0.70;;;40.90;21.60;;;;;;4954719;29;20192;-77
2022/08/12 12:08:35;;;;;;;1.60;0.83;;;40.60;21.30;;;;;;4955924;28;20167;-77
2022/08/12 12:11:01;;;;;;;1.70;0.80;;;40.20;21.50;;;;;;4954886;29;20575;-76
2022/08/12 12:13:27;;;;;;;2.27;0.73;;;39.90;21.50;;;;;;4954706;29;20177;-77
2022/08/12 12:15:53;;;;;;;4.20;1.03;;;39.90;21.80;;;;;;4938442;29;20271;-74
2022/08/12 12:18:30;;;;;;;4.20;1.03;;;39.80;21.90;;;;;;4956213;28;20181;-75
2022/08/12 12:21:04;;;;;;;1.40;0.70;;;39.70;21.40;;;;;;4958161;29;20653;-77
2022/08/12 12:23:33;;;;;;;2.90;0.90;;;39.60;21.80;;;;;;4956004;28;20919;-77
2022/08/12 12:26:00;;;;;;;3.30;0.90;;;39.40;21.70;;;;;;4955441;28;20607;-77
2022/08/12 12:28:26;;;;;;;4.27;1.00;;;39.30;22.00;;;;;;4955691;28;20643;-77
2022/08/12 12:30:52;;;;;;;1.40;0.70;;;39.30;22.00;;;;;;4954211;29;21022;-75
2022/08/12 12:33:19;;;;;;;2.23;0.87;;;39.20;21.80;;;;;;4954217;29;20544;-77
2022/08/12 12:35:45;;;;;;;2.37;0.60;;;39.00;21.20;;;;;;4954053;29;20736;-74
2022/08/12 12:38:12;;;;;;;1.77;0.73;;;38.60;21.40;;;;;;4962292;28;20723;-75
2022/08/12 12:40:41;;;;;;;1.70;0.80;;;38.50;21.40;;;;;;4970074;28;20619;-75
2022/08/12 12:43:07;;;;;;;2.37;0.73;;;38.30;21.40;;;;;;4955288;29;20582;-77
2022/08/12 12:45:36;;;;;;;1.67;0.80;;;38.10;21.40;;;;;;4969660;28;20611;-75
2022/08/12 12:48:03;;;;;;;4.67;1.10;;;38.10;21.50;;;;;;4973386;28;20587;-76
2022/08/12 12:50:34;;;;;;;9.43;1.50;;;37.80;21.70;;;;;;4965787;28;20995;-76
2022/08/12 12:52:59;;;;;;;1.93;1.10;;;37.50;21.90;;;;;;4974691;28;21164;-79
2022/08/12 12:55:26;;;;;;;1.60;0.90;;;37.40;21.90;;;;;;4975553;28;20678;-75
2022/08/12 12:57:52;;;;;;;1.40;0.80;;;37.00;21.90;;;;;;4975108;28;20176;-76
2022/08/12 13:00:20;;;;;;;1.50;0.80;;;36.70;21.80;;;;;;4989268;28;21122;-77
2022/08/12 13:02:57;;;;;;;2.23;1.63;;;36.30;21.90;;;;;;4941049;28;20563;-76
2022/08/12 13:05:27;;;;;;;2.17;1.00;;;36.00;22.00;;;;;;4988861;28;20625;-74
2022/08/12 13:07:54;;;;;;;6.90;0.90;;;35.60;22.10;;;;;;4989331;28;20595;-76
2022/08/12 13:10:22;;;;;;;3.00;0.90;;;35.40;22.30;;;;;;4973991;28;20922;-74
2022/08/12 13:12:48;;;;;;;8.00;1.20;;;35.20;22.50;;;;;;4974056;28;20929;-74
2022/08/12 13:15:15;;;;;;;1.70;1.10;;;34.90;22.60;;;;;;4972813;28;20956;-74
2022/08/12 13:17:42;;;;;;;1.50;0.80;;;34.80;22.70;;;;;;4974080;28;20600;-74
2022/08/12 13:20:09;;;;;;;2.10;0.90;;;34.50;22.70;;;;;;4974010;28;20568;-76
2022/08/12 13:22:35;;;;;;;2.57;1.00;;;34.30;23.20;;;;;;4988870;28;21238;-76
2022/08/12 13:25:00;;;;;;;1.40;0.80;;;34.30;23.40;;;;;;4973547;28;20618;-76
2022/08/12 13:27:44;;;;;;;1.83;0.90;;;34.20;23.20;;;;;;4974608;28;20183;-77
2022/08/12 13:30:15;;;;;;;2.30;0.83;;;34.20;23.40;;;;;;4973939;28;20255;-76
2022/08/12 13:32:49;;;;;;;1.80;0.90;;;34.20;23.40;;;;;;4959995;28;20594;-76
2022/08/12 13:35:16;;;;;;;3.87;0.90;;;34.20;23.60;;;;;;4989009;28;20711;-78
2022/08/12 13:37:51;;;;;;;1.57;0.90;;;34.20;23.80;;;;;;4973673;28;20634;-76
2022/08/12 13:40:20;;;;;;;1.87;0.70;;;34.10;23.60;;;;;;4973465;28;20570;-74
2022/08/12 13:42:47;;;;;;;1.83;1.20;;;34.10;23.50;;;;;;4988511;28;20580;-76
2022/08/12 13:45:14;;;;;;;2.47;0.70;;;34.00;23.70;;;;;;4956476;28;20706;-75
2022/08/12 13:47:58;;;;;;;2.03;0.90;;;34.00;23.60;;;;;;4973803;28;20586;-78
2022/08/12 13:50:37;;;;;;;1.50;0.80;;;34.00;23.70;;;;;;4973924;28;20609;-78
2022/08/12 13:53:09;;;;;;;2.37;0.90;;;34.10;23.60;;;;;;4972741;28;20574;-78
2022/08/12 13:55:37;;;;;;;1.63;0.70;;;34.10;23.60;;;;;;4973005;28;20600;-77
2022/08/12 13:58:04;;;;;;;3.27;0.90;;;34.20;23.70;;;;;;4973438;28;20973;-78
2022/08/12 14:00:32;;;;;;;3.53;0.90;;;34.20;23.80;;;;;;4973646;28;20627;-79
2022/08/12 14:02:58;;;;;;;1.50;0.80;;;34.20;23.80;;;;;;4974145;28;20566;-80
2022/08/12 14:05:25;;;;;;;2.03;0.90;;;34.20;23.80;;;;;;4972038;28;21146;-77
2022/08/12 14:07:59;;;;;;;3.20;1.00;;;34.20;23.70;;;;;;4972641;28;20674;-79
2022/08/12 14:10:37;;;;;;;2.23;0.90;;;34.20;23.70;;;;;;4976239;28;20633;-79
2022/08/12 14:13:21;;;;;;;3.53;1.10;;;34.20;23.80;;;;;;4972215;28;20587;-77
2022/08/12 14:15:52;;;;;;;2.30;0.90;;;34.20;23.90;;;;;;4972896;28;20607;-78
2022/08/12 14:18:20;;;;;;;1.93;0.90;;;34.20;23.90;;;;;;4971827;28;20968;-79
2022/08/12 14:20:51;;;;;;;1.70;0.80;;;34.30;24.00;;;;;;4971793;28;20656;-78
2022/08/12 14:23:19;;;;;;;2.07;0.90;;;34.40;24.00;;;;;;4972016;28;20576;-77
2022/08/12 14:25:46;;;;;;;6.07;0.80;;;34.40;24.00;;;;;;4955383;28;20610;-77
2022/08/12 14:28:16;;;;;;;7.23;1.03;;;34.40;24.00;;;;;;4970621;28;20651;-77
2022/08/12 14:30:52;;;;;;;1.87;0.90;;;34.50;24.00;;;;;;4966477;28;20601;-77
2022/08/12 14:33:28;;;;;;;2.23;0.90;;;34.50;24.00;;;;;;4971892;28;20980;-77
2022/08/12 14:35:55;;;;;;;3.10;0.90;;;34.60;24.00;;;;;;4963392;28;20616;-77
2022/08/12 14:38:26;;;;;;;5.20;0.83;;;34.60;24.00;;;;;;4973022;28;20576;-78
2022/08/12 14:40:55;;;;;;;2.63;0.93;;;34.70;24.10;;;;;;4971756;28;20678;-77
2022/08/12 14:43:22;;;;;;;1.90;1.00;;;34.70;24.30;;;;;;4987932;28;20630;-77
2022/08/12 14:45:48;;;;;;;1.87;0.83;;;34.80;24.20;;;;;;4974869;28;20629;-77
2022/08/12 14:48:20;;;;;;;3.00;0.87;;;34.80;24.10;;;;;;4971871;28;21152;-77
2022/08/12 14:50:46;;;;;;;8.77;1.87;;;34.70;24.00;;;;;;4972977;28;20187;-77